createdAt,value
2019-01-15T00:01:42.227Z,102231.87
2019-01-15T00:04:10.099Z,102232.66
2019-01-15T00:06:38.059Z,102230.79
2019-01-15T00:09:08.076Z,102236.91
2019-01-15T00:11:35.881Z,102244.73
2019-01-15T00:14:04.283Z,102238.16
2019-01-15T00:16:32.278Z,102230.75
2019-01-15T00:19:00.262Z,102236.83
2019-01-15T00:21:28.119Z,102233.69
2019-01-15T00:23:56.091Z,102244.05
2019-01-15T00:26:23.955Z,102248.80
2019-01-15T00:28:51.809Z,102246.25
2019-01-15T00:31:19.741Z,102245.45
2019-01-15T00:33:47.733Z,102249.55
2019-01-15T00:36:15.723Z,102255.56
2019-01-15T00:38:43.537Z,102252.53
2019-01-15T00:41:11.523Z,102254.72
2019-01-15T00:43:39.445Z,102256.44
2019-01-15T00:46:07.290Z,102252.23
2019-01-15T00:48:35.110Z,102248.84
2019-01-15T00:51:03.050Z,102253.22
2019-01-15T00:53:30.921Z,102253.67
2019-01-15T00:55:58.825Z,102253.22
2019-01-15T00:58:26.909Z,102253.22
2019-01-15T01:00:54.696Z,102247.25
2019-01-15T01:03:22.657Z,102247.80
2019-01-15T01:05:51.884Z,102243.53
2019-01-15T01:08:20.334Z,102242.53
2019-01-15T01:10:48.453Z,102231.40
2019-01-15T01:13:16.311Z,102233.13
2019-01-15T01:15:44.127Z,102223.23
2019-01-15T01:18:12.179Z,102232.25
2019-01-15T01:20:40.037Z,102233.98
2019-01-15T01:23:07.869Z,102234.30
2019-01-15T01:25:35.953Z,102231.72
2019-01-15T01:28:03.867Z,102226.18
2019-01-15T01:30:31.746Z,102226.59
2019-01-15T01:32:59.692Z,102224.89
2019-01-15T01:35:27.654Z,102219.25
2019-01-15T01:37:55.450Z,102211.88
2019-01-15T01:40:23.409Z,102214.55
2019-01-15T01:42:52.116Z,102213.63
2019-01-15T01:45:19.981Z,102219.66
2019-01-15T01:47:48.000Z,102229.16
2019-01-15T01:50:15.958Z,102222.72
2019-01-15T01:52:44.019Z,102220.56
2019-01-15T01:55:14.137Z,102219.22
2019-01-15T01:57:42.311Z,102218.34
2019-01-15T02:00:19.206Z,102229.11
2019-01-15T02:02:47.036Z,102235.22
2019-01-15T02:05:14.994Z,102231.32
2019-01-15T02:07:43.245Z,102223.58
2019-01-15T02:10:14.223Z,102226.18
2019-01-15T02:12:42.087Z,102216.73
2019-01-15T02:15:12.396Z,102211.54
2019-01-15T02:17:40.243Z,102223.61
2019-01-15T02:20:10.676Z,102223.16
2019-01-15T02:22:38.636Z,102217.95
2019-01-15T02:25:06.970Z,102212.75
2019-01-15T02:27:36.612Z,102220.58
2019-01-15T02:30:07.697Z,102208.96
2019-01-15T02:32:35.645Z,102203.83
2019-01-15T02:35:05.314Z,102204.67
2019-01-15T02:37:33.187Z,102214.17
2019-01-15T02:40:01.137Z,102210.69
2019-01-15T02:42:29.151Z,102211.56
2019-01-15T02:44:58.755Z,102210.68
2019-01-15T02:47:26.676Z,102203.25
2019-01-15T02:49:54.531Z,102195.08
2019-01-15T02:52:22.329Z,102188.97
2019-01-15T02:54:50.343Z,102192.02
2019-01-15T02:57:18.205Z,102186.34
2019-01-15T02:59:46.046Z,102178.00
2019-01-15T03:02:14.123Z,102179.25
2019-01-15T03:04:41.954Z,102188.27
2019-01-15T03:07:09.802Z,102190.27
2019-01-15T03:09:37.841Z,102189.39
2019-01-15T03:12:05.743Z,102180.00
2019-01-15T03:14:33.751Z,102173.41
2019-01-15T03:17:01.721Z,102176.70
2019-01-15T03:19:29.550Z,102166.83
2019-01-15T03:21:57.531Z,102162.95
2019-01-15T03:24:25.387Z,102163.70
2019-01-15T03:26:56.239Z,102161.14
2019-01-15T03:29:25.275Z,102147.06
2019-01-15T03:31:53.262Z,102150.05
2019-01-15T03:34:21.290Z,102150.47
2019-01-15T03:36:49.131Z,102145.66
2019-01-15T03:39:16.992Z,102143.59
2019-01-15T03:41:47.996Z,102143.59
2019-01-15T03:44:15.945Z,102142.37
2019-01-15T03:46:43.813Z,102152.76
2019-01-15T03:49:11.739Z,102153.21
2019-01-15T03:51:39.613Z,102141.91
2019-01-15T03:54:07.458Z,102143.03
2019-01-15T03:56:35.392Z,102134.13
2019-01-15T03:59:03.281Z,102140.74
2019-01-15T04:01:31.311Z,102135.19
2019-01-15T04:03:59.157Z,102134.34
2019-01-15T04:06:27.143Z,102127.12
2019-01-15T04:08:55.104Z,102122.52
2019-01-15T04:11:23.116Z,102117.91
2019-01-15T04:13:51.050Z,102116.24
2019-01-15T04:16:18.933Z,102104.11
2019-01-15T04:18:46.798Z,102107.41
2019-01-15T04:21:14.756Z,102107.75
2019-01-15T04:23:42.760Z,102109.06
2019-01-15T04:26:10.602Z,102110.50
2019-01-15T04:28:38.443Z,102116.34
2019-01-15T04:31:06.389Z,102109.41
2019-01-15T04:33:37.385Z,102103.89
2019-01-15T04:36:05.466Z,102101.98
2019-01-15T04:38:33.355Z,102103.48
2019-01-15T04:41:01.232Z,102102.49
2019-01-15T04:43:29.236Z,102104.90
2019-01-15T04:45:57.178Z,102108.19
2019-01-15T04:48:25.270Z,102108.00
2019-01-15T04:50:53.144Z,102102.84
2019-01-15T04:53:21.014Z,102098.02
2019-01-15T04:55:51.205Z,102101.95
2019-01-15T04:58:19.172Z,102099.54
2019-01-15T05:00:47.150Z,102110.44
2019-01-15T05:03:15.224Z,102105.35
2019-01-15T05:05:43.252Z,102095.41
2019-01-15T05:08:11.271Z,102092.62
2019-01-15T05:10:46.191Z,102095.79
2019-01-15T05:13:14.187Z,102090.20
2019-01-15T05:15:44.722Z,102088.11
2019-01-15T05:18:12.801Z,102104.46
2019-01-15T05:20:40.793Z,102094.02
2019-01-15T05:23:08.621Z,102092.16
2019-01-15T05:25:36.498Z,102096.38
2019-01-15T05:28:07.518Z,102089.17
2019-01-15T05:30:35.313Z,102083.47
2019-01-15T05:33:03.160Z,102085.16
2019-01-15T05:35:32.259Z,102089.66
2019-01-15T05:38:00.081Z,102096.80
2019-01-15T05:40:28.054Z,102092.56
2019-01-15T05:42:56.131Z,102086.81
2019-01-15T05:45:32.291Z,102086.26
2019-01-15T05:48:19.874Z,102085.91
2019-01-15T05:51:04.412Z,102077.94
2019-01-15T05:53:32.327Z,102076.23
2019-01-15T05:56:00.381Z,102067.27
2019-01-15T05:58:28.359Z,102060.23
2019-01-15T06:00:56.179Z,102056.31
2019-01-15T06:03:24.107Z,102060.52
2019-01-15T06:05:52.188Z,102064.05
2019-01-15T06:08:20.154Z,102054.53
2019-01-15T06:10:47.971Z,102055.96
2019-01-15T06:13:15.804Z,102048.44
2019-01-15T06:15:44.187Z,102058.28
2019-01-15T06:18:12.132Z,102058.19
2019-01-15T06:20:40.028Z,102058.73
2019-01-15T06:23:07.858Z,102053.06
2019-01-15T06:25:35.860Z,102049.31
2019-01-15T06:28:03.810Z,102048.82
2019-01-15T06:30:31.779Z,102050.89
2019-01-15T06:32:59.708Z,102049.98
2019-01-15T06:35:27.514Z,102047.58
2019-01-15T06:37:55.490Z,102044.41
2019-01-15T06:40:23.489Z,102040.96
2019-01-15T06:42:51.396Z,102041.41
2019-01-15T06:45:21.493Z,102044.50
2019-01-15T06:47:49.329Z,102034.94
2019-01-15T06:50:17.385Z,102032.44
2019-01-15T06:52:45.327Z,102031.41
2019-01-15T06:55:16.127Z,102024.77
2019-01-15T06:57:43.966Z,102035.02
2019-01-15T07:00:16.730Z,102027.64
2019-01-15T07:02:44.631Z,102032.63
2019-01-15T07:05:14.199Z,102025.63
2019-01-15T07:07:42.320Z,102033.14
2019-01-15T07:10:14.803Z,102034.09
2019-01-15T07:12:42.646Z,102027.11
2019-01-15T07:15:10.621Z,102025.33
2019-01-15T07:17:38.465Z,102022.78
2019-01-15T07:20:07.881Z,102021.41
2019-01-15T07:22:35.722Z,102014.59
2019-01-15T07:25:04.702Z,102020.08
2019-01-15T07:27:32.686Z,102014.46
2019-01-15T07:30:00.637Z,102019.42
2019-01-15T07:32:28.479Z,102020.27
2019-01-15T07:34:56.400Z,102020.80
2019-01-15T07:37:24.212Z,102024.14
2019-01-15T07:39:52.061Z,102020.35
2019-01-15T07:42:20.030Z,102020.70
2019-01-15T07:44:47.992Z,102023.13
2019-01-15T07:47:15.928Z,102032.12
2019-01-15T07:49:43.762Z,102024.17
2019-01-15T07:52:11.804Z,102024.97
2019-01-15T07:54:39.762Z,102027.31
2019-01-15T07:57:07.646Z,102026.66
2019-01-15T07:59:35.624Z,102027.45
2019-01-15T08:02:03.844Z,102030.00
2019-01-15T08:04:31.651Z,102034.48
2019-01-15T08:06:59.670Z,102031.52
2019-01-15T08:09:27.531Z,102037.94
2019-01-15T08:11:55.375Z,102035.39
2019-01-15T08:14:23.362Z,102033.05
2019-01-15T08:16:51.225Z,102030.93
2019-01-15T08:19:19.054Z,102027.39
2019-01-15T08:21:47.039Z,102035.09
2019-01-15T08:24:14.877Z,102039.84
2019-01-15T08:26:42.707Z,102034.83
2019-01-15T08:29:10.727Z,102033.16
2019-01-15T08:31:38.665Z,102037.16
2019-01-15T08:34:07.938Z,102035.95
2019-01-15T08:36:35.802Z,102037.34
2019-01-15T08:39:06.691Z,102028.75
2019-01-15T08:41:34.635Z,102029.00
2019-01-15T08:44:03.193Z,102024.25
2019-01-15T08:46:31.030Z,102025.64
2019-01-15T08:48:58.979Z,102029.38
2019-01-15T08:51:27.556Z,102028.84
2019-01-15T08:53:55.707Z,102025.70
2019-01-15T08:56:24.140Z,102029.73
2019-01-15T08:58:52.088Z,102019.36
2019-01-15T09:01:19.942Z,102032.92
2019-01-15T09:03:48.244Z,102027.53
2019-01-15T09:06:16.036Z,102026.35
2019-01-15T09:08:44.009Z,102018.58
2019-01-15T09:11:11.974Z,102017.53
2019-01-15T09:13:42.261Z,102024.27
2019-01-15T09:16:10.271Z,102013.47
2019-01-15T09:18:39.707Z,102012.14
2019-01-15T09:21:07.742Z,102010.13
2019-01-15T09:23:35.562Z,102009.70
2019-01-15T09:26:03.399Z,102007.22
2019-01-15T09:28:35.042Z,102012.47
2019-01-15T09:31:02.857Z,102011.62
2019-01-15T09:33:30.657Z,102009.11
2019-01-15T09:35:58.633Z,102005.88
2019-01-15T09:38:26.702Z,102008.77
2019-01-15T09:40:54.541Z,102016.16
2019-01-15T09:43:22.365Z,102005.17
2019-01-15T09:45:50.368Z,102008.94
2019-01-15T09:48:23.440Z,102007.25
2019-01-15T09:50:51.309Z,102001.22
2019-01-15T09:53:19.291Z,101999.91
2019-01-15T09:55:47.255Z,102003.41
2019-01-15T09:58:15.344Z,101988.23
2019-01-15T10:00:43.187Z,101991.19
2019-01-15T10:03:11.265Z,101981.38
2019-01-15T10:05:39.125Z,101979.00
2019-01-15T10:08:07.177Z,101984.90
2019-01-15T10:10:35.125Z,101980.23
2019-01-15T10:13:03.117Z,101979.00
2019-01-15T10:15:31.045Z,101993.14
2019-01-15T10:17:58.902Z,101981.99
2019-01-15T10:20:26.862Z,101984.63
2019-01-15T10:22:54.913Z,101981.14
2019-01-15T10:25:27.756Z,101984.14
2019-01-15T10:27:56.212Z,101979.38
2019-01-15T10:30:46.833Z,101972.84
2019-01-15T10:33:28.764Z,101967.12
2019-01-15T10:35:56.871Z,101970.14
2019-01-15T10:38:27.372Z,101977.95
2019-01-15T10:40:57.143Z,101969.85
2019-01-15T10:43:26.127Z,101967.42
2019-01-15T10:45:54.117Z,101967.29
2019-01-15T10:48:21.913Z,101960.80
2019-01-15T10:50:49.970Z,101965.19
2019-01-15T10:53:17.797Z,101963.97
2019-01-15T10:55:45.946Z,101963.67
2019-01-15T10:58:17.608Z,101967.38
2019-01-15T11:00:43.699Z,101965.52
2019-01-15T11:03:11.629Z,101970.68
2019-01-15T11:05:39.589Z,101969.56
2019-01-15T11:08:07.437Z,101966.16
2019-01-15T11:10:35.376Z,101966.32
2019-01-15T11:13:03.441Z,101966.00
2019-01-15T11:15:31.277Z,101969.77
2019-01-15T11:17:59.093Z,101962.95
2019-01-15T11:20:27.055Z,101956.19
2019-01-15T11:22:54.928Z,101963.00
2019-01-15T11:25:22.732Z,101963.92
2019-01-15T11:27:50.691Z,101959.38
2019-01-15T11:30:18.513Z,101961.75
2019-01-15T11:32:46.442Z,101958.47
2019-01-15T11:35:14.355Z,101961.62
2019-01-15T11:37:42.286Z,101948.07
2019-01-15T11:40:10.600Z,101947.49
2019-01-15T11:42:38.492Z,101947.45
2019-01-15T11:45:08.707Z,101944.80
2019-01-15T11:47:36.684Z,101942.06
2019-01-15T11:50:09.078Z,101941.25
2019-01-15T11:52:36.918Z,101950.84
2019-01-15T11:55:05.480Z,101940.34
2019-01-15T11:57:33.339Z,101931.25
2019-01-15T12:00:01.381Z,101931.21
2019-01-15T12:02:47.297Z,101927.72
2019-01-15T12:05:40.709Z,101923.73
2019-01-15T12:08:30.889Z,101914.48
2019-01-15T12:11:27.417Z,101912.42
2019-01-15T12:14:24.258Z,101916.58
2019-01-15T12:17:20.340Z,101915.24
2019-01-15T12:20:10.800Z,101919.06
2019-01-15T12:23:10.394Z,101911.33
2019-01-15T12:25:45.583Z,101909.95
2019-01-15T12:28:42.046Z,101911.25
2019-01-15T12:31:32.131Z,101906.08
2019-01-15T12:34:38.100Z,101898.94
2019-01-15T12:37:34.437Z,101902.72
2019-01-15T12:40:37.202Z,101890.18
2019-01-15T12:43:30.749Z,101896.11
2019-01-15T12:46:27.502Z,101895.98
2019-01-15T12:49:17.527Z,101892.45
2019-01-15T12:52:05.385Z,101893.39
2019-01-15T12:54:51.377Z,101888.00
2019-01-15T12:57:42.747Z,101879.05
2019-01-15T13:00:31.010Z,101881.91
2019-01-15T13:03:26.342Z,101876.74
2019-01-15T13:06:25.997Z,101879.26
2019-01-15T13:09:19.614Z,101878.25
2019-01-15T13:12:05.636Z,101878.72
2019-01-15T13:14:56.123Z,101866.91
2019-01-15T13:17:36.163Z,101856.74
2019-01-15T13:20:26.818Z,101855.13
2019-01-15T13:23:18.488Z,101854.61
2019-01-15T13:25:55.427Z,101848.80
2019-01-15T13:28:41.864Z,101854.47
2019-01-15T13:31:28.167Z,101852.16
2019-01-15T13:34:34.125Z,101850.62
2019-01-15T13:37:20.145Z,101853.37
2019-01-15T13:40:10.646Z,101852.16
2019-01-15T13:42:56.680Z,101844.89
2019-01-15T13:45:45.681Z,101855.19
2019-01-15T13:48:32.745Z,101859.31
2019-01-15T13:51:23.301Z,101842.89
2019-01-15T13:54:13.555Z,101842.42
2019-01-15T13:57:03.767Z,101845.64
2019-01-15T14:00:09.550Z,101850.16
2019-01-15T14:03:02.744Z,101842.29
2019-01-15T14:05:43.299Z,101844.84
2019-01-15T14:08:38.421Z,101845.12
2019-01-15T14:11:20.187Z,101844.67
2019-01-15T14:14:19.470Z,101833.37
2019-01-15T14:17:07.065Z,101832.06
2019-01-15T14:19:57.515Z,101831.09
2019-01-15T14:22:43.555Z,101831.83
2019-01-15T14:25:37.390Z,101833.98
2019-01-15T14:28:24.890Z,101832.22
2019-01-15T14:31:18.688Z,101821.09
2019-01-15T14:34:04.759Z,101832.03
2019-01-15T14:37:01.249Z,101826.81
2019-01-15T14:39:47.568Z,101823.15
2019-01-15T14:42:35.150Z,101819.52
2019-01-15T14:45:37.175Z,101813.56
2019-01-15T14:48:37.190Z,101826.16
2019-01-15T14:51:36.723Z,101821.27
2019-01-15T14:54:42.695Z,101822.70
2019-01-15T14:57:20.524Z,101815.66
2019-01-15T15:00:03.476Z,101809.86
2019-01-15T15:02:49.221Z,101824.59
2019-01-15T15:05:47.250Z,101816.44
2019-01-15T15:08:34.829Z,101816.80
2019-01-15T15:11:21.234Z,101819.87
2019-01-15T15:14:08.808Z,101815.22
2019-01-15T15:17:05.271Z,101807.60
2019-01-15T15:19:51.388Z,101811.64
2019-01-15T15:22:50.726Z,101811.69
2019-01-15T15:25:40.968Z,101807.95
2019-01-15T15:28:28.454Z,101815.08
2019-01-15T15:31:08.294Z,101821.28
2019-01-15T15:33:56.465Z,101813.41
2019-01-15T15:36:43.071Z,101803.95
2019-01-15T15:39:24.147Z,101804.43
2019-01-15T15:42:09.115Z,101807.22
2019-01-15T15:45:05.320Z,101816.58
2019-01-15T15:47:54.384Z,101819.52
2019-01-15T15:50:41.915Z,101804.44
2019-01-15T15:53:40.721Z,101801.73
2019-01-15T15:56:27.024Z,101809.41
2019-01-15T15:59:24.141Z,101808.91
2019-01-15T16:02:10.291Z,101813.65
2019-01-15T16:05:13.127Z,101816.58
2019-01-15T16:08:00.650Z,101811.50
2019-01-15T16:10:46.360Z,101809.83
2019-01-15T16:13:32.729Z,101803.50
2019-01-15T16:16:21.233Z,101808.14
2019-01-15T16:19:07.368Z,101810.95
2019-01-15T16:21:46.039Z,101809.64
2019-01-15T16:24:33.511Z,101802.61
2019-01-15T16:27:21.145Z,101806.47
2019-01-15T16:30:07.291Z,101801.72
2019-01-15T16:33:00.388Z,101804.43
2019-01-15T16:35:36.591Z,101793.11
2019-01-15T16:38:24.329Z,101798.05
2019-01-15T16:41:20.878Z,101798.60
2019-01-15T16:44:02.375Z,101800.05
2019-01-15T16:47:05.251Z,101798.48
2019-01-15T16:49:48.933Z,101793.51
2019-01-15T16:52:36.546Z,101802.33
2019-01-15T16:55:28.237Z,101796.88
2019-01-15T16:58:30.894Z,101802.71
2019-01-15T17:01:24.229Z,101798.48
2019-01-15T17:04:13.998Z,101799.96
2019-01-15T17:07:00.058Z,101793.25
2019-01-15T17:09:46.413Z,101795.41
2019-01-15T17:12:41.061Z,101799.02
2019-01-15T17:15:28.683Z,101789.72
2019-01-15T17:18:16.388Z,101797.91
2019-01-15T17:21:08.297Z,101799.45
2019-01-15T17:23:55.854Z,101789.49
2019-01-15T17:26:46.369Z,101797.07
2019-01-15T17:29:34.086Z,101796.66
2019-01-15T17:32:35.917Z,101788.60
2019-01-15T17:35:18.662Z,101792.14
2019-01-15T17:38:04.936Z,101789.48
2019-01-15T17:41:01.122Z,101792.34
2019-01-15T17:43:56.471Z,101791.34
2019-01-15T17:46:43.680Z,101792.87
2019-01-15T17:49:43.390Z,101793.27
2019-01-15T17:52:31.584Z,101787.71
2019-01-15T17:55:14.782Z,101786.44
2019-01-15T17:58:02.345Z,101791.95
2019-01-15T18:00:50.124Z,101798.75
2019-01-15T18:03:53.379Z,101793.40
2019-01-15T18:06:46.161Z,101791.68
2019-01-15T18:09:33.632Z,101789.39
2019-01-15T18:12:36.170Z,101789.72
2019-01-15T18:15:26.424Z,101790.27
2019-01-15T18:18:17.799Z,101783.39
2019-01-15T18:21:23.620Z,101788.88
2019-01-15T18:24:01.213Z,101783.71
2019-01-15T18:26:39.665Z,101780.37
2019-01-15T18:29:27.277Z,101785.39
2019-01-15T18:32:29.973Z,101783.21
2019-01-15T18:35:16.146Z,101772.91
2019-01-15T18:38:06.269Z,101775.89
2019-01-15T18:40:52.405Z,101770.17
2019-01-15T18:43:42.488Z,101777.30
2019-01-15T18:46:48.343Z,101777.02
2019-01-15T18:49:35.412Z,101765.56
2019-01-15T18:52:26.656Z,101769.47
2019-01-15T18:55:29.554Z,101767.89
2019-01-15T18:58:23.103Z,101775.02
2019-01-15T19:01:10.737Z,101758.95
2019-01-15T19:04:01.137Z,101768.77
2019-01-15T19:06:47.425Z,101769.34
2019-01-15T19:09:32.833Z,101759.70
2019-01-15T19:12:19.009Z,101758.77
2019-01-15T19:15:18.662Z,101749.70
2019-01-15T19:18:06.211Z,101748.39
2019-01-15T19:21:04.103Z,101741.25
2019-01-15T19:23:50.215Z,101744.47
2019-01-15T19:26:43.562Z,101736.48
2019-01-15T19:29:31.574Z,101741.86
2019-01-15T19:32:17.944Z,101744.94
2019-01-15T19:35:17.398Z,101737.48
2019-01-15T19:38:07.894Z,101739.56
2019-01-15T19:40:58.160Z,101732.36
2019-01-15T19:43:48.550Z,101728.83
2019-01-15T19:46:51.169Z,101737.59
2019-01-15T19:49:47.521Z,101736.62
2019-01-15T19:52:33.755Z,101731.41
2019-01-15T19:55:36.301Z,101726.33
2019-01-15T19:58:23.756Z,101730.70
2019-01-15T20:01:14.416Z,101734.89
2019-01-15T20:03:48.368Z,101720.98
2019-01-15T20:06:34.406Z,101724.05
2019-01-15T20:09:25.262Z,101720.00
2019-01-15T20:12:27.811Z,101722.88
2019-01-15T20:15:21.542Z,101720.28
2019-01-15T20:18:09.233Z,101720.80
2019-01-15T20:20:56.871Z,101711.41
2019-01-15T20:23:44.347Z,101711.02
2019-01-15T20:26:26.152Z,101704.11
2019-01-15T20:29:26.057Z,101699.52
2019-01-15T20:32:05.262Z,101702.66
2019-01-15T20:34:58.744Z,101711.49
2019-01-15T20:37:45.093Z,101704.30
2019-01-15T20:40:44.420Z,101707.36
2019-01-15T20:43:34.692Z,101710.48
2019-01-15T20:46:21.380Z,101702.34
2019-01-15T20:49:23.772Z,101700.66
2019-01-15T20:52:08.335Z,101700.62
2019-01-15T20:54:47.314Z,101701.30
2019-01-15T20:57:34.917Z,101698.01
2019-01-15T21:00:29.990Z,101696.24
2019-01-15T21:03:11.014Z,101688.70
2019-01-15T21:05:58.417Z,101688.07
2019-01-15T21:08:44.491Z,101691.94
2019-01-15T21:11:34.883Z,101692.09
2019-01-15T21:14:25.403Z,101686.61
2019-01-15T21:17:14.845Z,101681.97
2019-01-15T21:20:08.471Z,101681.08
2019-01-15T21:22:56.121Z,101676.97
2019-01-15T21:25:38.831Z,101677.53
2019-01-15T21:28:26.338Z,101665.50
2019-01-15T21:31:09.734Z,101671.28
2019-01-15T21:33:52.383Z,101666.11
2019-01-15T21:36:39.816Z,101668.88
2019-01-15T21:39:30.696Z,101666.22
2019-01-15T21:42:23.983Z,101665.02
2019-01-15T21:45:10.259Z,101661.30
2019-01-15T21:47:57.794Z,101659.53
2019-01-15T21:50:43.900Z,101654.12
2019-01-15T21:53:30.020Z,101655.11
2019-01-15T21:56:24.940Z,101652.50
2019-01-15T21:59:10.500Z,101651.86
2019-01-15T22:02:07.041Z,101645.77
2019-01-15T22:04:53.150Z,101652.80
2019-01-15T22:07:52.967Z,101640.51
2019-01-15T22:10:38.015Z,101644.73
2019-01-15T22:13:24.139Z,101634.72
2019-01-15T22:16:20.621Z,101639.98
2019-01-15T22:18:59.230Z,101638.67
2019-01-15T22:21:50.108Z,101630.23
2019-01-15T22:24:33.451Z,101631.22
2019-01-15T22:27:29.887Z,101622.52
2019-01-15T22:30:16.025Z,101620.91
2019-01-15T22:33:12.242Z,101617.36
2019-01-15T22:35:58.250Z,101610.00
2019-01-15T22:38:58.041Z,101619.87
2019-01-15T22:41:44.065Z,101609.32
2019-01-15T22:44:23.265Z,101619.02
2019-01-15T22:47:12.410Z,101620.68
2019-01-15T22:49:59.856Z,101613.85
2019-01-15T22:52:37.512Z,101613.18
2019-01-15T22:55:19.222Z,101605.89
2019-01-15T22:58:05.938Z,101605.25
2019-01-15T23:00:58.399Z,101603.75
2019-01-15T23:03:48.729Z,101606.16
2019-01-15T23:06:37.237Z,101602.15
2019-01-15T23:09:33.920Z,101606.87
2019-01-15T23:12:21.343Z,101600.55
2019-01-15T23:15:07.988Z,101597.95
2019-01-15T23:18:04.764Z,101590.10
2019-01-15T23:20:58.069Z,101585.66
2019-01-15T23:23:47.212Z,101583.09
2019-01-15T23:26:39.603Z,101578.71
2019-01-15T23:29:39.131Z,101580.45
2019-01-15T23:32:32.635Z,101578.10
2019-01-15T23:35:23.073Z,101570.59
2019-01-15T23:38:25.996Z,101573.78
2019-01-15T23:41:13.321Z,101568.70
2019-01-15T23:43:55.398Z,101566.45
2019-01-15T23:46:41.918Z,101553.59
2019-01-15T23:49:22.058Z,101557.55
2019-01-15T23:52:09.979Z,101547.62
2019-01-15T23:54:55.016Z,101546.62
2019-01-15T23:57:51.630Z,101552.03
